createdAt,value
2023-05-10T00:01:33.604Z,6.18
2023-05-10T00:04:10.045Z,6.16
2023-05-10T00:06:46.363Z,6.15
2023-05-10T00:09:22.670Z,6.13
2023-05-10T00:11:59.729Z,6.13
2023-05-10T00:14:36.374Z,6.12
2023-05-10T00:17:12.708Z,6.09
2023-05-10T00:19:49.390Z,6.05
2023-05-10T00:22:25.902Z,6.00
2023-05-10T00:25:02.234Z,5.95
2023-05-10T00:27:38.939Z,5.91
2023-05-10T00:30:17.009Z,5.86
2023-05-10T00:32:53.749Z,5.79
2023-05-10T00:35:30.818Z,5.72
2023-05-10T00:38:07.260Z,5.66
2023-05-10T00:40:44.135Z,5.60
2023-05-10T00:43:25.500Z,5.53
2023-05-10T00:46:02.744Z,5.48
2023-05-10T00:48:39.211Z,5.43
2023-05-10T00:51:16.193Z,5.39
2023-05-10T00:53:53.391Z,5.38
2023-05-10T00:56:30.999Z,5.34
2023-05-10T00:59:07.620Z,5.33
2023-05-10T01:01:44.366Z,5.31
2023-05-10T01:04:26.562Z,5.31
2023-05-10T01:07:02.986Z,5.29
2023-05-10T01:09:39.654Z,5.29
2023-05-10T01:12:16.888Z,5.28
2023-05-10T01:14:53.787Z,5.28
2023-05-10T01:17:31.408Z,5.28
2023-05-10T01:20:10.182Z,5.26
2023-05-10T01:23:44.689Z,5.23
2023-05-10T01:26:52.399Z,5.21
2023-05-10T01:30:28.388Z,5.17
2023-05-10T01:33:15.691Z,5.15
2023-05-10T01:36:07.598Z,5.14
2023-05-10T01:38:52.578Z,5.11
2023-05-10T01:41:50.080Z,5.09
2023-05-10T01:44:37.847Z,5.06
2023-05-10T01:47:19.627Z,5.02
2023-05-10T01:50:02.210Z,5.00
2023-05-10T01:52:45.824Z,4.98
2023-05-10T01:55:27.565Z,4.95
2023-05-10T01:58:16.350Z,4.92
2023-05-10T02:00:56.723Z,4.91
2023-05-10T02:03:35.617Z,4.87
2023-05-10T02:06:17.406Z,4.85
2023-05-10T02:08:55.966Z,4.82
2023-05-10T02:11:34.486Z,4.80
2023-05-10T02:14:12.619Z,4.77
2023-05-10T02:16:50.405Z,4.76
2023-05-10T02:19:28.195Z,4.74
2023-05-10T02:22:09.368Z,4.74
2023-05-10T02:24:47.602Z,4.71
2023-05-10T02:27:25.405Z,4.66
2023-05-10T02:30:03.756Z,4.63
2023-05-10T02:32:41.929Z,4.60
2023-05-10T02:35:19.384Z,4.55
2023-05-10T02:37:57.168Z,4.50
2023-05-10T02:40:34.853Z,4.45
2023-05-10T02:43:23.923Z,4.43
2023-05-10T02:46:03.395Z,4.42
2023-05-10T02:48:40.283Z,4.40
2023-05-10T02:51:20.778Z,4.39
2023-05-10T02:54:03.666Z,4.39
2023-05-10T02:56:49.299Z,4.40
2023-05-10T02:59:25.898Z,4.41
2023-05-10T03:02:03.046Z,4.42
2023-05-10T03:04:39.478Z,4.45
2023-05-10T03:07:20.362Z,4.48
2023-05-10T03:09:57.862Z,4.50
2023-05-10T03:13:09.259Z,4.53
2023-05-10T03:16:01.590Z,4.55
2023-05-10T03:18:46.668Z,4.60
2023-05-10T03:21:28.159Z,4.65
2023-05-10T03:24:13.943Z,4.70
2023-05-10T03:26:51.790Z,4.75
2023-05-10T03:29:30.628Z,4.79
2023-05-10T03:32:07.730Z,4.83
2023-05-10T03:34:48.163Z,4.88
2023-05-10T03:37:24.603Z,4.94
2023-05-10T03:40:00.929Z,5.17
2023-05-10T03:42:39.053Z,5.74
2023-05-10T03:45:17.165Z,6.44
2023-05-10T03:47:53.608Z,7.23
2023-05-10T03:50:30.331Z,8.00
2023-05-10T03:53:06.742Z,8.75
2023-05-10T03:55:43.200Z,9.54
2023-05-10T03:58:19.556Z,10.23
2023-05-10T04:00:57.184Z,10.87
2023-05-10T04:03:33.761Z,11.51
2023-05-10T04:06:13.085Z,12.11
2023-05-10T04:08:49.451Z,12.61
2023-05-10T04:11:25.898Z,13.06
2023-05-10T04:14:02.192Z,13.47
2023-05-10T04:16:38.463Z,13.88
2023-05-10T04:19:15.354Z,14.30
2023-05-10T04:21:51.654Z,14.56
2023-05-10T04:24:28.066Z,14.94
2023-05-10T04:27:04.343Z,15.23
2023-05-10T04:29:40.722Z,15.56
2023-05-10T04:32:18.208Z,15.85
2023-05-10T04:34:54.660Z,16.12
2023-05-10T04:37:30.870Z,16.33
2023-05-10T04:40:09.302Z,16.52
2023-05-10T04:42:51.855Z,16.76
2023-05-10T04:45:28.771Z,17.03
2023-05-10T04:48:05.903Z,17.19
2023-05-10T04:50:43.114Z,17.38
2023-05-10T04:53:20.190Z,17.49
2023-05-10T04:55:56.561Z,17.55
2023-05-10T04:58:32.753Z,17.59
2023-05-10T05:01:13.801Z,17.77
2023-05-10T05:03:50.039Z,17.94
2023-05-10T05:06:28.402Z,18.08
2023-05-10T05:09:05.201Z,18.28
2023-05-10T05:11:42.738Z,18.34
2023-05-10T05:14:19.225Z,18.27
2023-05-10T05:16:56.914Z,18.17
2023-05-10T05:19:34.717Z,18.26
2023-05-10T05:22:12.095Z,18.47
2023-05-10T05:24:48.937Z,18.74
2023-05-10T05:27:27.382Z,19.06
2023-05-10T05:30:05.262Z,19.27
2023-05-10T05:32:42.487Z,19.45
2023-05-10T05:35:20.037Z,19.50
2023-05-10T05:37:57.460Z,19.60
2023-05-10T05:40:34.891Z,19.81
2023-05-10T05:43:12.312Z,19.95
2023-05-10T05:45:52.032Z,19.81
2023-05-10T05:48:31.756Z,19.95
2023-05-10T05:51:08.931Z,19.99
2023-05-10T05:53:48.799Z,19.98
2023-05-10T05:56:26.738Z,20.10
2023-05-10T05:59:04.735Z,20.11
2023-05-10T06:01:41.894Z,20.27
2023-05-10T06:04:20.651Z,20.50
2023-05-10T06:06:57.632Z,20.77
2023-05-10T06:09:34.562Z,21.01
2023-05-10T06:12:13.917Z,21.23
2023-05-10T06:14:50.822Z,21.38
2023-05-10T06:17:28.682Z,21.56
2023-05-10T06:20:06.289Z,21.71
2023-05-10T06:22:43.092Z,21.97
2023-05-10T06:25:20.591Z,22.13
2023-05-10T06:27:58.936Z,22.25
2023-05-10T06:30:35.709Z,22.30
2023-05-10T06:33:12.633Z,22.42
2023-05-10T06:35:49.530Z,22.59
2023-05-10T06:38:25.984Z,22.79
2023-05-10T06:41:02.879Z,22.73
2023-05-10T06:43:41.002Z,22.62
2023-05-10T06:46:17.647Z,22.70
2023-05-10T06:48:54.195Z,22.82
2023-05-10T06:51:30.865Z,22.95
2023-05-10T06:54:08.053Z,22.94
2023-05-10T06:56:44.263Z,22.99
2023-05-10T06:59:22.728Z,22.91
2023-05-10T07:01:59.361Z,23.05
2023-05-10T07:04:36.211Z,23.01
2023-05-10T07:07:12.747Z,22.98
2023-05-10T07:09:50.718Z,22.95
2023-05-10T07:12:27.293Z,22.84
2023-05-10T07:15:04.090Z,22.79
2023-05-10T07:17:43.114Z,22.63
2023-05-10T07:20:21.360Z,22.59
2023-05-10T07:22:58.207Z,22.77
2023-05-10T07:25:35.012Z,23.10
2023-05-10T07:28:15.288Z,23.21
2023-05-10T07:30:51.994Z,23.13
2023-05-10T07:33:28.868Z,22.89
2023-05-10T07:36:05.266Z,22.97
2023-05-10T07:38:41.866Z,22.76
2023-05-10T07:41:18.253Z,22.75
2023-05-10T07:46:00.823Z,23.09
2023-05-10T07:48:37.827Z,23.48
2023-05-10T07:51:14.746Z,23.80
2023-05-10T07:53:51.345Z,24.01
2023-05-10T07:56:34.131Z,24.20
2023-05-10T07:59:12.670Z,24.30
2023-05-10T08:01:50.297Z,24.18
2023-05-10T08:04:27.410Z,23.88
2023-05-10T08:07:04.039Z,23.76
2023-05-10T08:09:40.412Z,23.78
2023-05-10T08:12:16.851Z,23.67
2023-05-10T08:14:53.228Z,23.55
2023-05-10T08:17:29.803Z,23.59
2023-05-10T08:20:08.853Z,23.63
2023-05-10T08:22:45.146Z,23.38
2023-05-10T08:25:21.723Z,23.12
2023-05-10T08:27:58.142Z,22.99
2023-05-10T08:30:34.638Z,22.99
2023-05-10T08:33:10.903Z,22.97
2023-05-10T08:35:47.152Z,22.92
2023-05-10T08:38:25.948Z,22.77
2023-05-10T08:41:04.262Z,22.61
2023-05-10T08:43:42.605Z,22.48
2023-05-10T08:46:22.738Z,22.46
2023-05-10T08:49:00.606Z,22.49
2023-05-10T08:51:43.911Z,22.46
2023-05-10T08:54:20.704Z,22.38
2023-05-10T08:56:57.724Z,22.29
2023-05-10T08:59:34.503Z,22.26
2023-05-10T09:02:14.796Z,22.06
2023-05-10T09:04:53.218Z,21.89
2023-05-10T09:07:30.849Z,21.74
2023-05-10T09:10:10.906Z,21.66
2023-05-10T09:12:50.051Z,21.49
2023-05-10T09:15:27.219Z,21.39
2023-05-10T09:18:04.858Z,21.30
2023-05-10T09:20:41.405Z,21.18
2023-05-10T09:23:18.340Z,21.11
2023-05-10T09:26:07.884Z,21.02
2023-05-10T09:28:59.188Z,20.99
2023-05-10T09:34:41.147Z,20.76
2023-05-10T09:37:17.635Z,20.64
2023-05-10T09:40:00.135Z,20.55
2023-05-10T09:42:37.194Z,20.50
2023-05-10T09:45:15.499Z,20.49
2023-05-10T09:47:52.877Z,20.47
2023-05-10T09:50:30.920Z,20.40
2023-05-10T09:53:09.015Z,20.36
2023-05-10T09:55:51.986Z,20.34
2023-05-10T09:58:28.558Z,20.30
2023-05-10T10:01:05.660Z,20.25
2023-05-10T10:03:47.459Z,20.18
2023-05-10T10:06:30.462Z,20.11
2023-05-10T10:09:08.665Z,20.07
2023-05-10T10:11:46.015Z,19.98
2023-05-10T10:14:24.179Z,19.96
2023-05-10T10:19:43.733Z,19.98
2023-05-10T10:22:20.879Z,19.89
2023-05-10T10:24:58.402Z,19.88
2023-05-10T10:27:50.999Z,19.89
2023-05-10T10:30:38.575Z,19.91
2023-05-10T10:34:06.421Z,19.92
2023-05-10T10:36:50.997Z,19.90
2023-05-10T10:39:28.827Z,19.84
2023-05-10T10:42:07.164Z,19.80
2023-05-10T10:44:47.007Z,19.76
2023-05-10T10:47:34.444Z,19.74
2023-05-10T10:50:14.109Z,19.73
2023-05-10T10:52:55.026Z,19.72
2023-05-10T10:55:32.193Z,19.68
2023-05-10T10:58:09.905Z,19.66
2023-05-10T11:00:46.987Z,19.64
2023-05-10T11:03:24.799Z,19.64
2023-05-10T11:06:05.225Z,19.65
2023-05-10T11:08:49.243Z,19.63
2023-05-10T11:11:26.612Z,19.63
2023-05-10T11:14:09.173Z,19.59
2023-05-10T11:16:52.150Z,19.61
2023-05-10T11:19:32.643Z,19.62
2023-05-10T11:22:21.594Z,19.63
2023-05-10T11:25:05.141Z,19.64
2023-05-10T11:27:44.180Z,19.65
2023-05-10T11:30:21.762Z,19.63
2023-05-10T11:32:58.612Z,19.63
2023-05-10T11:35:41.004Z,19.63
2023-05-10T11:38:19.558Z,19.63
2023-05-10T11:40:57.416Z,19.62
2023-05-10T11:43:34.196Z,19.57
2023-05-10T11:46:13.438Z,19.56
2023-05-10T11:48:54.117Z,19.56
2023-05-10T11:51:31.426Z,19.55
2023-05-10T11:54:12.732Z,19.54
2023-05-10T11:56:49.367Z,19.50
2023-05-10T11:59:27.340Z,19.41
2023-05-10T12:02:04.385Z,19.39
2023-05-10T12:04:42.452Z,19.38
2023-05-10T12:07:19.645Z,19.38
2023-05-10T12:10:16.623Z,19.36
2023-05-10T12:12:55.913Z,19.35
2023-05-10T12:15:33.141Z,19.36
2023-05-10T12:18:12.672Z,19.37
2023-05-10T12:20:49.322Z,19.35
2023-05-10T12:23:26.051Z,19.34
2023-05-10T12:26:11.932Z,19.35
2023-05-10T12:28:49.150Z,19.39
2023-05-10T12:31:25.821Z,19.40
2023-05-10T12:34:02.418Z,19.41
2023-05-10T12:36:44.254Z,19.39
2023-05-10T12:39:20.979Z,19.39
2023-05-10T12:41:57.850Z,19.37
2023-05-10T12:44:34.405Z,19.33
2023-05-10T12:47:11.840Z,19.35
2023-05-10T12:49:49.125Z,19.35
2023-05-10T12:52:25.865Z,19.36
2023-05-10T12:55:04.163Z,19.38
2023-05-10T12:57:40.898Z,19.40
2023-05-10T13:00:20.827Z,19.43
2023-05-10T13:02:57.981Z,19.43
2023-05-10T13:05:35.129Z,19.40
2023-05-10T13:08:12.140Z,19.42
2023-05-10T13:10:48.752Z,19.43
2023-05-10T13:13:25.879Z,19.44
2023-05-10T13:16:02.747Z,19.41
2023-05-10T13:18:39.433Z,19.42
2023-05-10T13:21:16.376Z,19.44
2023-05-10T13:23:53.275Z,19.43
2023-05-10T13:26:30.419Z,19.43
2023-05-10T13:29:07.535Z,19.40
2023-05-10T13:31:44.743Z,19.39
2023-05-10T13:34:22.379Z,19.39
2023-05-10T13:36:59.412Z,19.39
2023-05-10T13:39:38.405Z,19.40
2023-05-10T13:42:15.478Z,19.38
2023-05-10T13:44:52.402Z,19.37
2023-05-10T13:47:28.849Z,19.37
2023-05-10T13:50:05.558Z,19.35
2023-05-10T13:52:42.050Z,19.33
2023-05-10T13:55:19.447Z,19.35
2023-05-10T13:57:56.404Z,19.34
2023-05-10T14:00:33.194Z,19.35
2023-05-10T14:03:12.439Z,19.37
2023-05-10T14:05:49.596Z,19.39
2023-05-10T14:08:28.118Z,19.40
2023-05-10T14:11:05.041Z,19.40
2023-05-10T14:13:42.009Z,19.39
2023-05-10T14:16:18.907Z,19.38
2023-05-10T14:18:56.308Z,19.38
2023-05-10T14:21:35.707Z,19.38
2023-05-10T14:24:13.145Z,19.37
2023-05-10T14:26:49.693Z,19.38
2023-05-10T14:29:27.118Z,19.40
2023-05-10T14:32:04.003Z,19.39
2023-05-10T14:34:40.747Z,19.38
2023-05-10T14:37:20.168Z,19.39
2023-05-10T14:39:57.216Z,19.39
2023-05-10T14:42:33.744Z,19.39
2023-05-10T14:45:13.247Z,19.38
2023-05-10T14:47:49.611Z,19.38
2023-05-10T14:50:36.619Z,19.36
2023-05-10T14:53:15.340Z,19.35
2023-05-10T14:55:51.954Z,19.35
2023-05-10T14:58:29.049Z,19.34
2023-05-10T15:01:06.464Z,19.35
2023-05-10T15:03:43.832Z,19.36
2023-05-10T15:06:25.307Z,19.38
2023-05-10T15:09:02.434Z,19.36
2023-05-10T15:11:39.833Z,19.36
2023-05-10T15:14:16.628Z,19.37
2023-05-10T15:16:53.220Z,19.37
2023-05-10T15:19:30.739Z,19.36
2023-05-10T15:22:08.015Z,19.35
2023-05-10T15:24:44.357Z,19.32
2023-05-10T15:27:20.864Z,19.26
2023-05-10T15:29:57.983Z,19.21
2023-05-10T15:32:34.368Z,19.18
2023-05-10T15:35:13.490Z,19.11
2023-05-10T15:37:51.404Z,19.07
2023-05-10T15:40:28.381Z,19.05
2023-05-10T15:43:06.334Z,19.06
2023-05-10T15:45:42.704Z,18.99
2023-05-10T15:48:19.479Z,18.95
2023-05-10T15:50:58.177Z,18.94
2023-05-10T15:53:34.927Z,18.93
2023-05-10T15:56:12.624Z,18.84
2023-05-10T15:58:49.902Z,18.81
2023-05-10T16:01:26.498Z,18.78
2023-05-10T16:04:03.031Z,18.72
2023-05-10T16:06:40.118Z,18.68
2023-05-10T16:09:16.868Z,18.63
2023-05-10T16:11:53.560Z,18.62
2023-05-10T16:14:30.558Z,18.58
2023-05-10T16:17:07.958Z,18.55
2023-05-10T16:19:44.695Z,18.51
2023-05-10T16:22:22.480Z,18.47
2023-05-10T16:25:00.290Z,18.42
2023-05-10T16:27:36.700Z,18.35
2023-05-10T16:30:15.478Z,18.30
2023-05-10T16:32:52.161Z,18.26
2023-05-10T16:35:29.961Z,18.20
2023-05-10T16:38:07.059Z,18.17
2023-05-10T16:40:43.819Z,18.14
2023-05-10T16:43:20.495Z,18.10
2023-05-10T16:45:56.957Z,18.06
2023-05-10T16:48:33.630Z,18.02
2023-05-10T16:51:10.882Z,17.99
2023-05-10T16:53:47.976Z,17.94
2023-05-10T16:56:24.575Z,17.89
2023-05-10T16:59:01.564Z,17.85
2023-05-10T17:01:40.191Z,17.80
2023-05-10T17:04:18.568Z,17.76
2023-05-10T17:06:55.411Z,17.69
2023-05-10T17:09:32.350Z,17.64
2023-05-10T17:12:08.977Z,17.59
2023-05-10T17:14:45.873Z,17.53
2023-05-10T17:17:23.613Z,17.47
2023-05-10T17:20:00.886Z,17.39
2023-05-10T17:22:37.713Z,17.32
2023-05-10T17:25:21.715Z,17.24
2023-05-10T17:27:58.574Z,17.15
2023-05-10T17:30:36.127Z,17.06
2023-05-10T17:33:12.982Z,16.97
2023-05-10T17:35:52.767Z,16.89
2023-05-10T17:38:29.878Z,16.80
2023-05-10T17:41:06.775Z,16.71
2023-05-10T17:43:43.544Z,16.60
2023-05-10T17:46:20.445Z,16.45
2023-05-10T17:48:57.218Z,16.32
2023-05-10T17:51:34.550Z,16.18
2023-05-10T17:54:11.375Z,16.05
2023-05-10T17:56:48.191Z,15.90
2023-05-10T17:59:24.995Z,15.77
2023-05-10T18:02:01.705Z,15.65
2023-05-10T18:04:40.512Z,15.51
2023-05-10T18:07:18.772Z,15.40
2023-05-10T18:09:55.801Z,15.27
2023-05-10T18:12:32.979Z,15.15
2023-05-10T18:15:12.425Z,15.03
2023-05-10T18:17:50.493Z,14.91
2023-05-10T18:20:28.899Z,14.80
2023-05-10T18:23:09.208Z,14.70
2023-05-10T18:25:45.990Z,14.60
2023-05-10T18:28:24.639Z,14.49
2023-05-10T18:31:01.699Z,14.39
2023-05-10T18:33:39.281Z,14.29
2023-05-10T18:36:16.907Z,14.19
2023-05-10T18:38:54.109Z,14.11
2023-05-10T18:41:30.914Z,14.02
2023-05-10T18:44:08.259Z,13.94
2023-05-10T18:46:47.441Z,13.86
2023-05-10T18:49:25.656Z,13.79
2023-05-10T18:52:03.665Z,13.74
2023-05-10T18:54:41.498Z,13.67
2023-05-10T18:57:24.128Z,13.60
2023-05-10T19:00:01.482Z,13.54
2023-05-10T19:02:39.065Z,13.47
2023-05-10T19:05:17.422Z,13.39
2023-05-10T19:07:57.138Z,13.31
2023-05-10T19:10:39.428Z,13.22
2023-05-10T19:13:17.639Z,13.16
2023-05-10T19:16:15.230Z,13.10
2023-05-10T19:18:55.830Z,13.01
2023-05-10T19:21:34.461Z,12.95
2023-05-10T19:24:15.085Z,12.89
2023-05-10T19:26:52.700Z,12.83
2023-05-10T19:29:30.996Z,12.77
2023-05-10T19:32:08.427Z,12.73
2023-05-10T19:34:46.678Z,12.65
2023-05-10T19:37:25.627Z,12.59
2023-05-10T19:40:05.273Z,12.54
2023-05-10T19:42:42.899Z,12.47
2023-05-10T19:45:24.347Z,12.38
2023-05-10T19:48:03.167Z,12.31
2023-05-10T19:50:43.957Z,12.24
2023-05-10T19:53:21.955Z,12.16
2023-05-10T19:56:07.711Z,12.11
2023-05-10T19:58:46.161Z,12.03
2023-05-10T20:01:26.204Z,11.95
2023-05-10T20:04:04.168Z,11.89
2023-05-10T20:06:41.508Z,11.83
2023-05-10T20:09:20.077Z,11.77
2023-05-10T20:11:57.334Z,11.70
2023-05-10T20:14:34.788Z,11.67
2023-05-10T20:17:12.079Z,11.65
2023-05-10T20:19:49.595Z,11.61
2023-05-10T20:22:26.364Z,11.58
2023-05-10T20:25:03.038Z,11.55
2023-05-10T20:27:40.216Z,11.53
2023-05-10T20:30:19.248Z,11.52
2023-05-10T20:32:56.337Z,11.48
2023-05-10T20:35:34.392Z,11.44
2023-05-10T20:38:11.753Z,11.41
2023-05-10T20:40:49.166Z,11.38
2023-05-10T20:43:26.135Z,11.34
2023-05-10T20:46:05.610Z,11.30
2023-05-10T20:48:42.622Z,11.24
2023-05-10T20:51:20.236Z,11.19
2023-05-10T20:53:57.244Z,11.14
2023-05-10T20:56:35.069Z,11.07
2023-05-10T20:59:12.117Z,11.01
2023-05-10T21:01:49.097Z,10.95
2023-05-10T21:04:25.836Z,10.90
2023-05-10T21:07:02.853Z,10.84
2023-05-10T21:09:39.717Z,10.78
2023-05-10T21:12:16.724Z,10.72
2023-05-10T21:14:53.777Z,10.64
2023-05-10T21:17:31.205Z,10.58
2023-05-10T21:20:09.884Z,10.52
2023-05-10T21:22:46.386Z,10.45
2023-05-10T21:25:25.432Z,10.40
2023-05-10T21:28:27.674Z,10.34
2023-05-10T21:31:04.312Z,10.28
2023-05-10T21:33:40.862Z,10.23
2023-05-10T21:36:17.503Z,10.18
2023-05-10T21:38:54.064Z,10.13
2023-05-10T21:41:30.491Z,10.08
2023-05-10T21:44:06.984Z,10.04
2023-05-10T21:46:44.456Z,10.00
2023-05-10T21:49:20.835Z,9.97
2023-05-10T21:51:57.132Z,9.92
2023-05-10T21:54:34.449Z,9.90
2023-05-10T21:57:10.878Z,9.87
2023-05-10T21:59:47.539Z,9.84
2023-05-10T22:02:23.858Z,9.81
2023-05-10T22:05:00.257Z,9.78
2023-05-10T22:07:36.958Z,9.75
2023-05-10T22:10:15.219Z,9.73
2023-05-10T22:12:51.732Z,9.71
2023-05-10T22:15:28.569Z,9.69
2023-05-10T22:18:05.463Z,9.68
2023-05-10T22:20:42.103Z,9.66
2023-05-10T22:23:18.794Z,9.64
2023-05-10T22:25:55.003Z,9.61
2023-05-10T22:28:31.747Z,9.59
2023-05-10T22:31:12.227Z,9.57
2023-05-10T22:33:48.903Z,9.53
2023-05-10T22:36:25.333Z,9.51
2023-05-10T22:39:01.807Z,9.49
2023-05-10T22:41:38.598Z,9.47
2023-05-10T22:44:14.992Z,9.45
2023-05-10T22:46:52.027Z,9.42
2023-05-10T22:49:28.726Z,9.41
2023-05-10T22:52:05.200Z,9.39
2023-05-10T22:54:41.581Z,9.35
2023-05-10T22:57:18.035Z,9.34
2023-05-10T22:59:55.021Z,9.31
2023-05-10T23:02:31.751Z,9.30
2023-05-10T23:05:10.852Z,9.27
2023-05-10T23:07:50.435Z,9.25
2023-05-10T23:10:27.203Z,9.24
2023-05-10T23:13:04.067Z,9.23
2023-05-10T23:15:40.486Z,9.21
2023-05-10T23:18:16.993Z,9.21
2023-05-10T23:20:54.167Z,9.20
2023-05-10T23:23:31.148Z,9.18
2023-05-10T23:26:08.907Z,9.18
2023-05-10T23:28:45.240Z,9.18
2023-05-10T23:31:21.685Z,9.19
2023-05-10T23:33:58.141Z,9.19
2023-05-10T23:36:34.445Z,9.19
2023-05-10T23:39:12.038Z,9.18
2023-05-10T23:41:48.463Z,9.17
2023-05-10T23:44:24.911Z,9.14
2023-05-10T23:47:01.164Z,9.12
2023-05-10T23:49:38.245Z,9.11
2023-05-10T23:52:14.647Z,9.07
2023-05-10T23:54:51.030Z,9.04
2023-05-10T23:57:27.342Z,9.01
